sensor_id;sensor_type;location;lat;lon;timestamp;pressure;altitude;pressure_sealevel;temperature;humidity
50123;BME280;36021;48.670;6.184;2022-10-30T00:00:25;99283.06;;;18.41;100.00
50123;BME280;36021;48.670;6.184;2022-10-30T00:02:50;99283.72;;;18.38;100.00
50123;BME280;36021;48.670;6.184;2022-10-30T00:05:16;99278.53;;;18.49;100.00
50123;BME280;36021;48.670;6.184;2022-10-30T00:07:42;99281.03;;;18.50;100.00
50123;BME280;36021;48.670;6.184;2022-10-30T00:10:08;99277.47;;;18.41;100.00
50123;BME280;36021;48.670;6.184;2022-10-30T00:12:34;99280.41;;;18.45;100.00
50123;BME280;36021;48.670;6.184;2022-10-30T00:15:00;99274.88;;;18.36;100.00
50123;BME280;36021;48.670;6.184;2022-10-30T00:17:26;99271.94;;;18.33;100.00
50123;BME280;36021;48.670;6.184;2022-10-30T00:19:51;99274.19;;;18.39;100.00
50123;BME280;36021;48.670;6.184;2022-10-30T00:22:19;99278.84;;;18.35;100.00
50123;BME280;36021;48.670;6.184;2022-10-30T00:24:47;99270.31;;;18.32;100.00
50123;BME280;36021;48.670;6.184;2022-10-30T00:27:12;99272.84;;;18.25;100.00
50123;BME280;36021;48.670;6.184;2022-10-30T00:29:38;99270.38;;;18.23;100.00
50123;BME280;36021;48.670;6.184;2022-10-30T00:32:05;99266.16;;;18.17;100.00
50123;BME280;36021;48.670;6.184;2022-10-30T00:34:32;99273.22;;;18.14;100.00
50123;BME280;36021;48.670;6.184;2022-10-30T00:36:57;99276.34;;;18.13;100.00
50123;BME280;36021;48.670;6.184;2022-10-30T00:39:23;99275.66;;;18.16;100.00
50123;BME280;36021;48.670;6.184;2022-10-30T00:41:49;99278.13;;;18.17;100.00
50123;BME280;36021;48.670;6.184;2022-10-30T00:44:39;99270.72;;;18.21;100.00
50123;BME280;36021;48.670;6.184;2022-10-30T00:47:19;99273.66;;;18.25;100.00
50123;BME280;36021;48.670;6.184;2022-10-30T00:50:11;99271.03;;;18.20;100.00
50123;BME280;36021;48.670;6.184;2022-10-30T00:52:41;99280.59;;;18.19;100.00
50123;BME280;36021;48.670;6.184;2022-10-30T00:55:13;99277.13;;;18.22;100.00
50123;BME280;36021;48.670;6.184;2022-10-30T00:57:41;99267.94;;;18.21;100.00
50123;BME280;36021;48.670;6.184;2022-10-30T01:00:11;99266.28;;;18.20;100.00
50123;BME280;36021;48.670;6.184;2022-10-30T01:02:38;99269.22;;;18.24;100.00
50123;BME280;36021;48.670;6.184;2022-10-30T01:05:06;99272.69;;;18.21;100.00
50123;BME280;36021;48.670;6.184;2022-10-30T01:07:32;99270.38;;;18.23;100.00
50123;BME280;36021;48.670;6.184;2022-10-30T01:09:57;99273.38;;;18.18;100.00
50123;BME280;36021;48.670;6.184;2022-10-30T01:12:24;99265.69;;;18.15;100.00
50123;BME280;36021;48.670;6.184;2022-10-30T01:14:54;99260.56;;;18.17;100.00
50123;BME280;36021;48.670;6.184;2022-10-30T01:20:46;99256.75;;;18.01;100.00
50123;BME280;36021;48.670;6.184;2022-10-30T01:26:02;99252.06;;;17.93;100.00
50123;BME280;36021;48.670;6.184;2022-10-30T01:31:59;99252.59;;;17.86;100.00
50123;BME280;36021;48.670;6.184;2022-10-30T01:37:15;99253.19;;;17.92;100.00
50123;BME280;36021;48.670;6.184;2022-10-30T01:39:43;99255.31;;;17.95;100.00
50123;BME280;36021;48.670;6.184;2022-10-30T01:42:36;99255.03;;;17.88;100.00
50123;BME280;36021;48.670;6.184;2022-10-30T01:44:56;99251.75;;;17.86;100.00
50123;BME280;36021;48.670;6.184;2022-10-30T01:47:45;99247.16;;;17.90;100.00
50123;BME280;36021;48.670;6.184;2022-10-30T01:50:16;99251.25;;;17.84;100.00
50123;BME280;36021;48.670;6.184;2022-10-30T01:53:02;99244.06;;;17.83;100.00
50123;BME280;36021;48.670;6.184;2022-10-30T01:55:58;99247.53;;;17.80;100.00
50123;BME280;36021;48.670;6.184;2022-10-30T01:58:36;99247.53;;;17.80;100.00
50123;BME280;36021;48.670;6.184;2022-10-30T02:01:07;99243.72;;;17.84;100.00
50123;BME280;36021;48.670;6.184;2022-10-30T02:03:32;99239.44;;;17.87;100.00
50123;BME280;36021;48.670;6.184;2022-10-30T02:05:58;99237.00;;;17.85;100.00
50123;BME280;36021;48.670;6.184;2022-10-30T02:08:26;99242.72;;;17.89;100.00
50123;BME280;36021;48.670;6.184;2022-10-30T02:10:53;99231.06;;;17.87;100.00
50123;BME280;36021;48.670;6.184;2022-10-30T02:13:31;99237.66;;;17.82;100.00
50123;BME280;36021;48.670;6.184;2022-10-30T02:15:57;99241.00;;;17.76;100.00
50123;BME280;36021;48.670;6.184;2022-10-30T02:18:25;99232.28;;;17.77;100.00
50123;BME280;36021;48.670;6.184;2022-10-30T02:20:52;99232.91;;;17.83;100.00
50123;BME280;36021;48.670;6.184;2022-10-30T02:23:19;99229.16;;;17.79;100.00
50123;BME280;36021;48.670;6.184;2022-10-30T02:25:48;99225.63;;;17.69;100.00
50123;BME280;36021;48.670;6.184;2022-10-30T02:28:13;99228.25;;;17.66;100.00
50123;BME280;36021;48.670;6.184;2022-10-30T02:30:39;99228.56;;;17.64;100.00
50123;BME280;36021;48.670;6.184;2022-10-30T02:33:09;99225.66;;;17.61;100.00
50123;BME280;36021;48.670;6.184;2022-10-30T02:35:36;99226.47;;;17.61;100.00
50123;BME280;36021;48.670;6.184;2022-10-30T02:38:02;99227.13;;;17.58;100.00
50123;BME280;36021;48.670;6.184;2022-10-30T02:40:28;99229.09;;;17.58;100.00
50123;BME280;36021;48.670;6.184;2022-10-30T02:42:55;99237.28;;;17.54;100.00
50123;BME280;36021;48.670;6.184;2022-10-30T02:45:21;99236.34;;;17.50;100.00
50123;BME280;36021;48.670;6.184;2022-10-30T02:47:47;99239.59;;;17.52;100.00
50123;BME280;36021;48.670;6.184;2022-10-30T02:50:12;99233.22;;;17.52;100.00
50123;BME280;36021;48.670;6.184;2022-10-30T02:52:38;99241.25;;;17.53;100.00
50123;BME280;36021;48.670;6.184;2022-10-30T02:55:04;99235.50;;;17.58;100.00
50123;BME280;36021;48.670;6.184;2022-10-30T02:57:30;99241.53;;;17.60;100.00
50123;BME280;36021;48.670;6.184;2022-10-30T02:59:57;99234.84;;;17.53;100.00
50123;BME280;36021;48.670;6.184;2022-10-30T03:02:23;99233.22;;;17.52;100.00
50123;BME280;36021;48.670;6.184;2022-10-30T03:04:49;99242.22;;;17.57;100.00
50123;BME280;36021;48.670;6.184;2022-10-30T03:07:15;99223.88;;;17.56;100.00
50123;BME280;36021;48.670;6.184;2022-10-30T03:09:40;99226.97;;;17.55;100.00
50123;BME280;36021;48.670;6.184;2022-10-30T03:12:07;99234.56;;;17.46;100.00
50123;BME280;36021;48.670;6.184;2022-10-30T03:14:32;99223.94;;;17.39;100.00
50123;BME280;36021;48.670;6.184;2022-10-30T03:16:58;99224.59;;;17.36;100.00
50123;BME280;36021;48.670;6.184;2022-10-30T03:19:24;99227.56;;;17.31;100.00
50123;BME280;36021;48.670;6.184;2022-10-30T03:21:52;99226.41;;;17.32;100.00
50123;BME280;36021;48.670;6.184;2022-10-30T03:24:19;99221.03;;;17.27;100.00
50123;BME280;36021;48.670;6.184;2022-10-30T03:26:46;99220.66;;;17.37;100.00
50123;BME280;36021;48.670;6.184;2022-10-30T03:29:12;99227.41;;;17.28;100.00
50123;BME280;36021;48.670;6.184;2022-10-30T03:31:39;99227.28;;;17.24;100.00
50123;BME280;36021;48.670;6.184;2022-10-30T03:34:15;99235.91;;;17.31;100.00
50123;BME280;36021;48.670;6.184;2022-10-30T03:36:41;99234.31;;;17.30;100.00
50123;BME280;36021;48.670;6.184;2022-10-30T03:39:07;99226.78;;;17.22;100.00
50123;BME280;36021;48.670;6.184;2022-10-30T03:41:33;99234.16;;;17.18;100.00
50123;BME280;36021;48.670;6.184;2022-10-30T03:43:59;99232.41;;;17.13;100.00
50123;BME280;36021;48.670;6.184;2022-10-30T03:46:25;99223.41;;;17.08;100.00
50123;BME280;36021;48.670;6.184;2022-10-30T03:48:53;99229.63;;;17.05;100.00
50123;BME280;36021;48.670;6.184;2022-10-30T03:51:20;99237.66;;;17.06;100.00
50123;BME280;36021;48.670;6.184;2022-10-30T03:53:46;99244.72;;;17.04;100.00
50123;BME280;36021;48.670;6.184;2022-10-30T03:56:12;99240.44;;;17.06;100.00
50123;BME280;36021;48.670;6.184;2022-10-30T03:58:58;99247.00;;;17.02;100.00
50123;BME280;36021;48.670;6.184;2022-10-30T04:01:23;99239.50;;;16.94;100.00
50123;BME280;36021;48.670;6.184;2022-10-30T04:03:54;99255.56;;;16.88;100.00
50123;BME280;36021;48.670;6.184;2022-10-30T04:06:20;99253.09;;;16.87;100.00
50123;BME280;36021;48.670;6.184;2022-10-30T04:08:45;99253.28;;;16.73;100.00
50123;BME280;36021;48.670;6.184;2022-10-30T04:11:11;99248.22;;;16.75;100.00
50123;BME280;36021;48.670;6.184;2022-10-30T04:13:38;99251.31;;;16.74;100.00
50123;BME280;36021;48.670;6.184;2022-10-30T04:16:04;99247.41;;;16.75;100.00
50123;BME280;36021;48.670;6.184;2022-10-30T04:18:32;99245.28;;;16.72;100.00
50123;BME280;36021;48.670;6.184;2022-10-30T04:20:59;99250.53;;;16.64;100.00
50123;BME280;36021;48.670;6.184;2022-10-30T04:23:26;99250.69;;;16.68;100.00
50123;BME280;36021;48.670;6.184;2022-10-30T04:25:53;99257.06;;;16.69;100.00
50123;BME280;36021;48.670;6.184;2022-10-30T04:28:18;99252.66;;;16.67;100.00
50123;BME280;36021;48.670;6.184;2022-10-30T04:30:46;99247.22;;;16.62;100.00
50123;BME280;36021;48.670;6.184;2022-10-30T04:33:14;99249.84;;;16.59;100.00
50123;BME280;36021;48.670;6.184;2022-10-30T04:35:42;99238.03;;;16.53;100.00
50123;BME280;36021;48.670;6.184;2022-10-30T04:38:12;99253.44;;;16.51;100.00
50123;BME280;36021;48.670;6.184;2022-10-30T04:40:41;99247.06;;;16.50;100.00
50123;BME280;36021;48.670;6.184;2022-10-30T04:43:09;99252.50;;;16.55;100.00
50123;BME280;36021;48.670;6.184;2022-10-30T04:45:37;99249.06;;;16.58;100.00
50123;BME280;36021;48.670;6.184;2022-10-30T04:48:11;99244.28;;;16.59;100.00
50123;BME280;36021;48.670;6.184;2022-10-30T04:50:37;99249.72;;;16.55;100.00
50123;BME280;36021;48.670;6.184;2022-10-30T04:53:06;99246.06;;;16.46;100.00
50123;BME280;36021;48.670;6.184;2022-10-30T04:55:32;99244.44;;;16.45;100.00
50123;BME280;36021;48.670;6.184;2022-10-30T04:57:59;99243.44;;;16.50;100.00
50123;BME280;36021;48.670;6.184;2022-10-30T05:00:30;99233.16;;;16.50;100.00
50123;BME280;36021;48.670;6.184;2022-10-30T05:03:04;99233.31;;;16.45;100.00
50123;BME280;36021;48.670;6.184;2022-10-30T05:05:30;99234.59;;;16.39;100.00
50123;BME280;36021;48.670;6.184;2022-10-30T05:07:57;99221.53;;;16.31;100.00
50123;BME280;36021;48.670;6.184;2022-10-30T05:10:23;99223.16;;;16.24;100.00
50123;BME280;36021;48.670;6.184;2022-10-30T05:12:51;99218.28;;;16.29;100.00
50123;BME280;36021;48.670;6.184;2022-10-30T05:15:18;99217.94;;;16.31;100.00
50123;BME280;36021;48.670;6.184;2022-10-30T05:17:43;99217.78;;;16.36;100.00
50123;BME280;36021;48.670;6.184;2022-10-30T05:20:09;99207.44;;;16.36;100.00
50123;BME280;36021;48.670;6.184;2022-10-30T05:22:35;99206.50;;;16.32;100.00
50123;BME280;36021;48.670;6.184;2022-10-30T05:25:01;99207.31;;;16.33;100.00
50123;BME280;36021;48.670;6.184;2022-10-30T05:27:27;99204.03;;;16.31;100.00
50123;BME280;36021;48.670;6.184;2022-10-30T05:29:53;99206.31;;;16.29;100.00
50123;BME280;36021;48.670;6.184;2022-10-30T05:32:18;99206.00;;;16.13;100.00
50123;BME280;36021;48.670;6.184;2022-10-30T05:34:47;99202.06;;;16.14;100.00
50123;BME280;36021;48.670;6.184;2022-10-30T05:37:17;99203.53;;;16.11;100.00
50123;BME280;36021;48.670;6.184;2022-10-30T05:39:43;99201.25;;;16.05;100.00
50123;BME280;36021;48.670;6.184;2022-10-30T05:42:20;99212.84;;;15.90;100.00
50123;BME280;36021;48.670;6.184;2022-10-30T05:44:45;99204.31;;;15.78;100.00
50123;BME280;36021;48.670;6.184;2022-10-30T05:47:12;99209.88;;;15.69;100.00
50123;BME280;36021;48.670;6.184;2022-10-30T05:49:42;99209.00;;;15.51;100.00
50123;BME280;36021;48.670;6.184;2022-10-30T05:52:13;99215.34;;;15.43;100.00
50123;BME280;36021;48.670;6.184;2022-10-30T05:54:38;99210.25;;;15.45;100.00
50123;BME280;36021;48.670;6.184;2022-10-30T05:57:13;99211.56;;;15.39;100.00
50123;BME280;36021;48.670;6.184;2022-10-30T05:59:39;99208.66;;;15.44;100.00
50123;BME280;36021;48.670;6.184;2022-10-30T06:02:07;99210.91;;;15.42;100.00
50123;BME280;36021;48.670;6.184;2022-10-30T06:04:32;99214.06;;;15.49;100.00
50123;BME280;36021;48.670;6.184;2022-10-30T06:07:01;99210.47;;;15.49;100.00
50123;BME280;36021;48.670;6.184;2022-10-30T06:09:26;99214.88;;;15.50;100.00
50123;BME280;36021;48.670;6.184;2022-10-30T06:11:57;99214.56;;;15.51;100.00
50123;BME280;36021;48.670;6.184;2022-10-30T06:14:36;99215.06;;;15.53;100.00
50123;BME280;36021;48.670;6.184;2022-10-30T06:17:03;99219.47;;;15.54;100.00
50123;BME280;36021;48.670;6.184;2022-10-30T06:19:31;99221.28;;;15.59;100.00
50123;BME280;36021;48.670;6.184;2022-10-30T06:22:08;99227.13;;;15.49;100.00
50123;BME280;36021;48.670;6.184;2022-10-30T06:24:44;99232.78;;;15.35;100.00
50123;BME280;36021;48.670;6.184;2022-10-30T06:27:21;99228.69;;;15.41;100.00
50123;BME280;36021;48.670;6.184;2022-10-30T06:29:46;99232.13;;;15.38;100.00
50123;BME280;36021;48.670;6.184;2022-10-30T06:32:13;99226.94;;;15.45;100.00
50123;BME280;36021;48.670;6.184;2022-10-30T06:34:41;99228.38;;;15.34;100.00
50123;BME280;36021;48.670;6.184;2022-10-30T06:37:09;99222.53;;;15.44;100.00
50123;BME280;36021;48.670;6.184;2022-10-30T06:39:34;99228.88;;;15.45;100.00
50123;BME280;36021;48.670;6.184;2022-10-30T06:42:26;99232.69;;;15.49;100.00
50123;BME280;36021;48.670;6.184;2022-10-30T06:45:00;99236.13;;;15.54;100.00
50123;BME280;36021;48.670;6.184;2022-10-30T06:47:26;99234.13;;;15.46;100.00
50123;BME280;36021;48.670;6.184;2022-10-30T06:49:52;99241.19;;;15.52;100.00
50123;BME280;36021;48.670;6.184;2022-10-30T06:52:17;99242.88;;;15.62;100.00
50123;BME280;36021;48.670;6.184;2022-10-30T06:54:47;99239.63;;;15.69;100.00
50123;BME280;36021;48.670;6.184;2022-10-30T06:57:32;99241.13;;;15.83;100.00
50123;BME280;36021;48.670;6.184;2022-10-30T07:00:06;99239.00;;;15.89;100.00
50123;BME280;36021;48.670;6.184;2022-10-30T07:02:59;99238.19;;;15.97;100.00
50123;BME280;36021;48.670;6.184;2022-10-30T07:05:25;99224.47;;;16.09;100.00
50123;BME280;36021;48.670;6.184;2022-10-30T07:07:51;99224.81;;;16.16;100.00
50123;BME280;36021;48.670;6.184;2022-10-30T07:10:17;99230.38;;;16.16;100.00
50123;BME280;36021;48.670;6.184;2022-10-30T07:13:07;99234.63;;;16.22;100.00
50123;BME280;36021;48.670;6.184;2022-10-30T07:15:43;99238.72;;;16.33;100.00
50123;BME280;36021;48.670;6.184;2022-10-30T07:18:19;99233.97;;;16.42;100.00
50123;BME280;36021;48.670;6.184;2022-10-30T07:20:47;99237.91;;;16.41;100.00
50123;BME280;36021;48.670;6.184;2022-10-30T07:23:19;99235.28;;;16.36;100.00
50123;BME280;36021;48.670;6.184;2022-10-30T07:25:45;99238.22;;;16.48;100.00
50123;BME280;36021;48.670;6.184;2022-10-30T07:28:31;99230.38;;;16.67;100.00
50123;BME280;36021;48.670;6.184;2022-10-30T07:31:19;99235.13;;;17.22;100.00
50123;BME280;36021;48.670;6.184;2022-10-30T07:33:51;99233.13;;;17.98;100.00
50123;BME280;36021;48.670;6.184;2022-10-30T07:36:26;99226.63;;;18.56;100.00
50123;BME280;36021;48.670;6.184;2022-10-30T07:39:02;99231.66;;;18.96;100.00
50123;BME280;36021;48.670;6.184;2022-10-30T07:41:36;99233.88;;;19.59;100.00
50123;BME280;36021;48.670;6.184;2022-10-30T07:44:31;99230.56;;;20.06;100.00
50123;BME280;36021;48.670;6.184;2022-10-30T07:47:12;99237.59;;;19.88;100.00
50123;BME280;36021;48.670;6.184;2022-10-30T07:49:54;99235.50;;;19.85;100.00
50123;BME280;36021;48.670;6.184;2022-10-30T07:52:19;99233.53;;;20.49;100.00
50123;BME280;36021;48.670;6.184;2022-10-30T07:54:47;99233.22;;;20.66;100.00
50123;BME280;36021;48.670;6.184;2022-10-30T07:57:37;99232.00;;;20.79;100.00
50123;BME280;36021;48.670;6.184;2022-10-30T08:00:22;99246.06;;;21.86;100.00
50123;BME280;36021;48.670;6.184;2022-10-30T08:02:57;99236.56;;;22.79;100.00
50123;BME280;36021;48.670;6.184;2022-10-30T08:05:55;99246.88;;;24.04;100.00
50123;BME280;36021;48.670;6.184;2022-10-30T08:08:31;99229.47;;;25.18;100.00
50123;BME280;36021;48.670;6.184;2022-10-30T08:11:19;99232.88;;;26.29;100.00
50123;BME280;36021;48.670;6.184;2022-10-30T08:13:45;99241.41;;;27.29;100.00
50123;BME280;36021;48.670;6.184;2022-10-30T08:16:11;99238.97;;;27.21;100.00
50123;BME280;36021;48.670;6.184;2022-10-30T08:18:37;99234.19;;;27.50;100.00
50123;BME280;36021;48.670;6.184;2022-10-30T08:21:05;99243.13;;;28.15;100.00
50123;BME280;36021;48.670;6.184;2022-10-30T08:23:33;99240.69;;;27.89;100.00
50123;BME280;36021;48.670;6.184;2022-10-30T08:26:05;99236.22;;;27.70;100.00
50123;BME280;36021;48.670;6.184;2022-10-30T08:28:34;99251.91;;;28.70;100.00
50123;BME280;36021;48.670;6.184;2022-10-30T08:31:02;99239.84;;;30.38;100.00
50123;BME280;36021;48.670;6.184;2022-10-30T08:33:49;99234.00;;;30.12;100.00
50123;BME280;36021;48.670;6.184;2022-10-30T08:36:50;99248.38;;;29.35;100.00
50123;BME280;36021;48.670;6.184;2022-10-30T08:39:16;99245.59;;;29.90;100.00
50123;BME280;36021;48.670;6.184;2022-10-30T08:41:57;99240.97;;;29.52;100.00
50123;BME280;36021;48.670;6.184;2022-10-30T08:44:26;99245.28;;;29.09;100.00
50123;BME280;36021;48.670;6.184;2022-10-30T08:47:09;99243.00;;;28.72;100.00
50123;BME280;36021;48.670;6.184;2022-10-30T08:49:36;99239.00;;;28.37;100.00
50123;BME280;36021;48.670;6.184;2022-10-30T08:52:06;99238.16;;;28.69;100.00
50123;BME280;36021;48.670;6.184;2022-10-30T08:54:33;99231.38;;;29.32;100.00
50123;BME280;36021;48.670;6.184;2022-10-30T08:56:59;99230.41;;;29.53;100.00
50123;BME280;36021;48.670;6.184;2022-10-30T08:59:26;99231.63;;;28.79;100.00
50123;BME280;36021;48.670;6.184;2022-10-30T09:01:56;99232.56;;;25.86;100.00
50123;BME280;36021;48.670;6.184;2022-10-30T09:04:54;99234.91;;;24.97;100.00
50123;BME280;36021;48.670;6.184;2022-10-30T09:07:46;99240.78;;;24.55;100.00
50123;BME280;36021;48.670;6.184;2022-10-30T09:10:35;99227.81;;;24.20;100.00
50123;BME280;36021;48.670;6.184;2022-10-30T09:13:00;99232.22;;;24.18;100.00
50123;BME280;36021;48.670;6.184;2022-10-30T09:15:26;99229.84;;;23.71;100.00
50123;BME280;36021;48.670;6.184;2022-10-30T09:17:59;99227.25;;;23.17;100.00
50123;BME280;36021;48.670;6.184;2022-10-30T09:20:26;99216.94;;;23.24;100.00
50123;BME280;36021;48.670;6.184;2022-10-30T09:22:54;99207.66;;;23.01;100.00
50123;BME280;36021;48.670;6.184;2022-10-30T09:25:19;99220.47;;;22.99;100.00
50123;BME280;36021;48.670;6.184;2022-10-30T09:28:05;99214.25;;;23.09;100.00
50123;BME280;36021;48.670;6.184;2022-10-30T09:30:46;99216.13;;;23.24;100.00
50123;BME280;36021;48.670;6.184;2022-10-30T09:33:17;99222.75;;;23.80;100.00
50123;BME280;36021;48.670;6.184;2022-10-30T09:36:10;99217.44;;;24.87;100.00
50123;BME280;36021;48.670;6.184;2022-10-30T09:38:35;99226.69;;;25.21;100.00
50123;BME280;36021;48.670;6.184;2022-10-30T09:46:27;99221.09;;;26.92;100.00
50123;BME280;36021;48.670;6.184;2022-10-30T09:49:14;99231.19;;;25.66;100.00
50123;BME280;36021;48.670;6.184;2022-10-30T09:52:16;99227.34;;;25.45;100.00
50123;BME280;36021;48.670;6.184;2022-10-30T10:00:21;99226.63;;;26.71;100.00
50123;BME280;36021;48.670;6.184;2022-10-30T10:06:01;99231.78;;;27.90;100.00
50123;BME280;36021;48.670;6.184;2022-10-30T10:09:01;99245.41;;;28.73;100.00
50123;BME280;36021;48.670;6.184;2022-10-30T10:11:53;99243.00;;;28.65;100.00
50123;BME280;36021;48.670;6.184;2022-10-30T10:14:23;99235.63;;;30.13;100.00
50123;BME280;36021;48.670;6.184;2022-10-30T10:16:52;99240.94;;;31.99;95.35
50123;BME280;36021;48.670;6.184;2022-10-30T10:19:57;99234.53;;;31.69;96.20
50123;BME280;36021;48.670;6.184;2022-10-30T10:22:32;99230.63;;;30.24;100.00
50123;BME280;36021;48.670;6.184;2022-10-30T10:25:02;99242.00;;;29.10;100.00
50123;BME280;36021;48.670;6.184;2022-10-30T10:27:45;99233.00;;;29.29;100.00
50123;BME280;36021;48.670;6.184;2022-10-30T10:51:28;99248.16;;;33.49;83.66
50123;BME280;36021;48.670;6.184;2022-10-30T10:53:59;99243.69;;;32.92;83.69
50123;BME280;36021;48.670;6.184;2022-10-30T10:56:34;99249.63;;;31.92;88.13
50123;BME280;36021;48.670;6.184;2022-10-30T10:59:10;99248.47;;;30.28;97.10
50123;BME280;36021;48.670;6.184;2022-10-30T11:01:39;99250.03;;;29.91;99.68
50123;BME280;36021;48.670;6.184;2022-10-30T11:04:29;99247.72;;;30.20;96.29
50123;BME280;36021;48.670;6.184;2022-10-30T11:06:57;99237.50;;;29.20;100.00
50123;BME280;36021;48.670;6.184;2022-10-30T11:09:23;99237.34;;;28.54;100.00
50123;BME280;36021;48.670;6.184;2022-10-30T11:11:53;99247.16;;;28.04;100.00
50123;BME280;36021;48.670;6.184;2022-10-30T11:14:26;99245.13;;;28.01;100.00
50123;BME280;36021;48.670;6.184;2022-10-30T11:19:30;99231.41;;;26.53;100.00
50123;BME280;36021;48.670;6.184;2022-10-30T11:21:57;99231.72;;;27.37;100.00
50123;BME280;36021;48.670;6.184;2022-10-30T11:24:31;99238.53;;;27.08;100.00
50123;BME280;36021;48.670;6.184;2022-10-30T11:30:04;99235.50;;;26.62;100.00
50123;BME280;36021;48.670;6.184;2022-10-30T11:32:32;99230.06;;;26.29;100.00
50123;BME280;36021;48.670;6.184;2022-10-30T11:37:34;99234.06;;;26.28;100.00
50123;BME280;36021;48.670;6.184;2022-10-30T11:40:03;99234.59;;;26.40;100.00
50123;BME280;36021;48.670;6.184;2022-10-30T11:42:29;99243.53;;;25.99;100.00
50123;BME280;36021;48.670;6.184;2022-10-30T11:44:55;99241.97;;;26.01;100.00
50123;BME280;36021;48.670;6.184;2022-10-30T11:47:39;99235.44;;;26.52;100.00
50123;BME280;36021;48.670;6.184;2022-10-30T11:50:23;99235.19;;;26.81;100.00
50123;BME280;36021;48.670;6.184;2022-10-30T11:52:55;99232.81;;;26.18;100.00
50123;BME280;36021;48.670;6.184;2022-10-30T11:55:26;99229.06;;;25.56;100.00
50123;BME280;36021;48.670;6.184;2022-10-30T11:57:56;99229.88;;;26.04;100.00
50123;BME280;36021;48.670;6.184;2022-10-30T12:00:30;99231.44;;;25.95;100.00
50123;BME280;36021;48.670;6.184;2022-10-30T12:02:57;99228.81;;;26.23;100.00
50123;BME280;36021;48.670;6.184;2022-10-30T12:10:38;99226.00;;;27.06;100.00
50123;BME280;36021;48.670;6.184;2022-10-30T12:13:12;99226.09;;;27.48;100.00
50123;BME280;36021;48.670;6.184;2022-10-30T12:15:40;99218.03;;;27.68;100.00
50123;BME280;36021;48.670;6.184;2022-10-30T12:18:07;99222.06;;;28.23;100.00
50123;BME280;36021;48.670;6.184;2022-10-30T12:20:45;99221.25;;;27.80;100.00
50123;BME280;36021;48.670;6.184;2022-10-30T12:23:19;99217.38;;;26.77;100.00
50123;BME280;36021;48.670;6.184;2022-10-30T12:25:47;99216.31;;;27.21;100.00
50123;BME280;36021;48.670;6.184;2022-10-30T12:28:16;99222.75;;;27.07;100.00
50123;BME280;36021;48.670;6.184;2022-10-30T12:30:51;99214.78;;;27.73;100.00
50123;BME280;36021;48.670;6.184;2022-10-30T12:33:23;99212.25;;;27.08;100.00
50123;BME280;36021;48.670;6.184;2022-10-30T12:35:54;99208.22;;;27.26;100.00
50123;BME280;36021;48.670;6.184;2022-10-30T12:38:25;99213.53;;;27.49;100.00
50123;BME280;36021;48.670;6.184;2022-10-30T12:41:01;99203.38;;;27.09;100.00
50123;BME280;36021;48.670;6.184;2022-10-30T12:43:31;99204.59;;;27.19;100.00
50123;BME280;36021;48.670;6.184;2022-10-30T12:46:27;99209.47;;;27.43;100.00
50123;BME280;36021;48.670;6.184;2022-10-30T12:49:01;99205.34;;;26.95;100.00
50123;BME280;36021;48.670;6.184;2022-10-30T12:51:34;99199.34;;;27.24;100.00
50123;BME280;36021;48.670;6.184;2022-10-30T12:56:37;99200.56;;;26.26;100.00
50123;BME280;36021;48.670;6.184;2022-10-30T13:02:26;99207.03;;;25.72;100.00
50123;BME280;36021;48.670;6.184;2022-10-30T13:04:57;99197.41;;;25.36;100.00
50123;BME280;36021;48.670;6.184;2022-10-30T13:07:29;99198.44;;;25.18;100.00
50123;BME280;36021;48.670;6.184;2022-10-30T13:10:11;99196.66;;;25.43;100.00
50123;BME280;36021;48.670;6.184;2022-10-30T13:12:45;99189.03;;;25.07;100.00
50123;BME280;36021;48.670;6.184;2022-10-30T13:15:27;99193.50;;;25.08;100.00
50123;BME280;36021;48.670;6.184;2022-10-30T13:17:58;99193.69;;;25.25;100.00
50123;BME280;36021;48.670;6.184;2022-10-30T13:20:26;99197.19;;;25.52;100.00
50123;BME280;36021;48.670;6.184;2022-10-30T13:23:04;99195.25;;;25.63;100.00
50123;BME280;36021;48.670;6.184;2022-10-30T13:28:26;99181.72;;;25.86;100.00
50123;BME280;36021;48.670;6.184;2022-10-30T13:33:41;99176.00;;;26.45;100.00
50123;BME280;36021;48.670;6.184;2022-10-30T13:36:20;99184.03;;;25.70;100.00
50123;BME280;36021;48.670;6.184;2022-10-30T13:39:12;99183.47;;;26.09;100.00
50123;BME280;36021;48.670;6.184;2022-10-30T13:42:01;99186.81;;;26.25;100.00
50123;BME280;36021;48.670;6.184;2022-10-30T13:52:26;99190.16;;;25.83;100.00
50123;BME280;36021;48.670;6.184;2022-10-30T14:00:56;99190.94;;;26.38;100.00
50123;BME280;36021;48.670;6.184;2022-10-30T14:06:11;99194.91;;;26.23;100.00
50123;BME280;36021;48.670;6.184;2022-10-30T14:09:02;99199.72;;;25.64;100.00
50123;BME280;36021;48.670;6.184;2022-10-30T14:11:30;99206.19;;;25.68;100.00
50123;BME280;36021;48.670;6.184;2022-10-30T14:14:03;99192.22;;;25.02;100.00
50123;BME280;36021;48.670;6.184;2022-10-30T14:16:37;99203.94;;;25.44;100.00
50123;BME280;36021;48.670;6.184;2022-10-30T14:19:15;99201.81;;;25.74;100.00
50123;BME280;36021;48.670;6.184;2022-10-30T14:21:54;99205.50;;;25.85;100.00
50123;BME280;36021;48.670;6.184;2022-10-30T14:26:49;99210.50;;;25.15;100.00
50123;BME280;36021;48.670;6.184;2022-10-30T14:39:54;99195.41;;;26.42;100.00
50123;BME280;36021;48.670;6.184;2022-10-30T14:45:04;99196.94;;;25.71;100.00
50123;BME280;36021;48.670;6.184;2022-10-30T15:03:06;99201.78;;;24.90;100.00
50123;BME280;36021;48.670;6.184;2022-10-30T15:05:51;99202.94;;;24.56;100.00
50123;BME280;36021;48.670;6.184;2022-10-30T15:13:34;99219.44;;;24.24;100.00
50123;BME280;36021;48.670;6.184;2022-10-30T15:16:02;99210.88;;;24.17;100.00
50123;BME280;36021;48.670;6.184;2022-10-30T15:18:30;99223.09;;;24.02;100.00